Terminal Aerodrome Forecast
Issued by NWS

Home | Current Version | Previous Version | Text Only | Print | Product List | Glossary On
Versions: 1 2 3 4 5 6 7 8 9 10 11 12 13 14 15
000
FTUS42 KMLB 272331
TAFISM
TAF
KISM 272331Z 2800/2824 18006KT P6SM VCTS SCT035CB BKN120 OVC250
     FM280200 22004KT P6SM SCT030 SCT120 BKN250
     FM281500 24006KT P6SM SCT035
     FM282000 25007KT P6SM VCTS SCT050CB=

USA.gov is the U.S. government's official web portal to all federal, state and local government web resources and services.